sensor_id;sensor_type;location;lat;lon;timestamp;P1;durP1;ratioP1;P2;durP2;ratioP2
34585;SDS011;20816;50.950;11.108;2022-07-29T00:01:50;3.23;;;0.80;;
34585;SDS011;20816;50.950;11.108;2022-07-29T00:04:18;1.97;;;0.73;;
34585;SDS011;20816;50.950;11.108;2022-07-29T00:06:47;0.90;;;0.80;;
34585;SDS011;20816;50.950;11.108;2022-07-29T00:09:13;1.77;;;0.77;;
34585;SDS011;20816;50.950;11.108;2022-07-29T00:11:40;5.17;;;0.70;;
34585;SDS011;20816;50.950;11.108;2022-07-29T00:14:07;1.73;;;0.97;;
34585;SDS011;20816;50.950;11.108;2022-07-29T00:16:34;1.10;;;1.00;;
34585;SDS011;20816;50.950;11.108;2022-07-29T00:19:01;3.67;;;1.03;;
34585;SDS011;20816;50.950;11.108;2022-07-29T00:21:28;1.47;;;0.90;;
34585;SDS011;20816;50.950;11.108;2022-07-29T00:23:55;0.73;;;0.50;;
34585;SDS011;20816;50.950;11.108;2022-07-29T00:26:22;1.37;;;0.60;;
34585;SDS011;20816;50.950;11.108;2022-07-29T00:28:48;0.90;;;0.70;;
34585;SDS011;20816;50.950;11.108;2022-07-29T00:31:15;1.63;;;0.80;;
34585;SDS011;20816;50.950;11.108;2022-07-29T00:33:41;1.70;;;0.80;;
34585;SDS011;20816;50.950;11.108;2022-07-29T00:36:08;4.63;;;1.07;;
34585;SDS011;20816;50.950;11.108;2022-07-29T00:38:35;1.60;;;0.57;;
34585;SDS011;20816;50.950;11.108;2022-07-29T00:41:01;1.40;;;0.57;;
34585;SDS011;20816;50.950;11.108;2022-07-29T00:43:28;2.30;;;0.83;;
34585;SDS011;20816;50.950;11.108;2022-07-29T00:45:55;1.27;;;0.73;;
34585;SDS011;20816;50.950;11.108;2022-07-29T00:48:21;1.40;;;0.87;;
34585;SDS011;20816;50.950;11.108;2022-07-29T00:50:49;2.00;;;0.70;;
34585;SDS011;20816;50.950;11.108;2022-07-29T00:53:16;3.03;;;0.77;;
34585;SDS011;20816;50.950;11.108;2022-07-29T00:55:43;1.50;;;0.93;;
34585;SDS011;20816;50.950;11.108;2022-07-29T00:58:10;3.90;;;0.60;;
34585;SDS011;20816;50.950;11.108;2022-07-29T01:00:41;1.73;;;0.93;;
34585;SDS011;20816;50.950;11.108;2022-07-29T01:03:10;4.57;;;0.80;;
34585;SDS011;20816;50.950;11.108;2022-07-29T01:05:37;2.10;;;1.00;;
34585;SDS011;20816;50.950;11.108;2022-07-29T01:08:16;5.20;;;0.90;;
34585;SDS011;20816;50.950;11.108;2022-07-29T01:10:44;4.23;;;0.97;;
34585;SDS011;20816;50.950;11.108;2022-07-29T01:13:12;1.20;;;0.90;;
34585;SDS011;20816;50.950;11.108;2022-07-29T01:15:44;4.63;;;0.57;;
34585;SDS011;20816;50.950;11.108;2022-07-29T01:18:21;2.43;;;0.70;;
34585;SDS011;20816;50.950;11.108;2022-07-29T01:32:38;2.07;;;0.47;;
34585;SDS011;20816;50.950;11.108;2022-07-29T01:38:11;3.63;;;0.90;;
34585;SDS011;20816;50.950;11.108;2022-07-29T01:40:40;3.67;;;1.07;;
34585;SDS011;20816;50.950;11.108;2022-07-29T01:43:12;1.20;;;0.80;;
34585;SDS011;20816;50.950;11.108;2022-07-29T01:45:47;0.50;;;0.40;;
34585;SDS011;20816;50.950;11.108;2022-07-29T01:48:24;1.17;;;0.70;;
34585;SDS011;20816;50.950;11.108;2022-07-29T01:51:14;1.17;;;0.50;;
34585;SDS011;20816;50.950;11.108;2022-07-29T01:54:02;0.60;;;0.50;;
34585;SDS011;20816;50.950;11.108;2022-07-29T01:56:33;2.03;;;0.67;;
34585;SDS011;20816;50.950;11.108;2022-07-29T01:59:03;1.63;;;0.77;;
34585;SDS011;20816;50.950;11.108;2022-07-29T02:01:32;1.20;;;0.40;;
34585;SDS011;20816;50.950;11.108;2022-07-29T02:04:04;2.87;;;1.17;;
34585;SDS011;20816;50.950;11.108;2022-07-29T02:06:33;2.93;;;0.63;;
34585;SDS011;20816;50.950;11.108;2022-07-29T02:09:02;5.47;;;1.43;;
34585;SDS011;20816;50.950;11.108;2022-07-29T02:11:33;2.80;;;0.70;;
34585;SDS011;20816;50.950;11.108;2022-07-29T02:14:02;1.93;;;0.67;;
34585;SDS011;20816;50.950;11.108;2022-07-29T02:16:30;0.80;;;0.80;;
34585;SDS011;20816;50.950;11.108;2022-07-29T02:19:00;4.57;;;1.20;;
34585;SDS011;20816;50.950;11.108;2022-07-29T02:21:29;2.43;;;0.80;;
34585;SDS011;20816;50.950;11.108;2022-07-29T02:23:59;0.73;;;0.63;;
34585;SDS011;20816;50.950;11.108;2022-07-29T02:26:28;1.57;;;0.60;;
34585;SDS011;20816;50.950;11.108;2022-07-29T02:28:58;0.80;;;0.70;;
34585;SDS011;20816;50.950;11.108;2022-07-29T02:31:26;0.50;;;0.47;;
34585;SDS011;20816;50.950;11.108;2022-07-29T02:33:58;0.53;;;0.50;;
34585;SDS011;20816;50.950;11.108;2022-07-29T02:36:29;2.07;;;0.73;;
34585;SDS011;20816;50.950;11.108;2022-07-29T02:38:57;3.20;;;0.80;;
34585;SDS011;20816;50.950;11.108;2022-07-29T02:44:12;0.50;;;0.50;;
34585;SDS011;20816;50.950;11.108;2022-07-29T02:46:51;1.23;;;0.67;;
34585;SDS011;20816;50.950;11.108;2022-07-29T02:52:24;1.60;;;0.63;;
34585;SDS011;20816;50.950;11.108;2022-07-29T02:54:58;0.70;;;0.67;;
34585;SDS011;20816;50.950;11.108;2022-07-29T03:00:20;3.90;;;0.87;;
34585;SDS011;20816;50.950;11.108;2022-07-29T03:02:50;2.63;;;0.80;;
34585;SDS011;20816;50.950;11.108;2022-07-29T03:05:20;1.47;;;0.87;;
34585;SDS011;20816;50.950;11.108;2022-07-29T03:08:09;2.07;;;0.63;;
34585;SDS011;20816;50.950;11.108;2022-07-29T03:10:36;1.03;;;0.60;;
34585;SDS011;20816;50.950;11.108;2022-07-29T03:13:04;2.80;;;1.07;;
34585;SDS011;20816;50.950;11.108;2022-07-29T03:15:33;0.67;;;0.67;;
34585;SDS011;20816;50.950;11.108;2022-07-29T03:18:01;5.47;;;0.90;;
34585;SDS011;20816;50.950;11.108;2022-07-29T03:20:28;0.87;;;0.83;;
34585;SDS011;20816;50.950;11.108;2022-07-29T03:22:55;2.03;;;0.73;;
34585;SDS011;20816;50.950;11.108;2022-07-29T03:25:22;1.20;;;1.00;;
34585;SDS011;20816;50.950;11.108;2022-07-29T03:27:48;3.00;;;0.70;;
34585;SDS011;20816;50.950;11.108;2022-07-29T03:30:15;1.50;;;0.50;;
34585;SDS011;20816;50.950;11.108;2022-07-29T03:32:47;1.40;;;0.50;;
34585;SDS011;20816;50.950;11.108;2022-07-29T03:35:17;2.27;;;0.83;;
34585;SDS011;20816;50.950;11.108;2022-07-29T03:37:45;1.30;;;0.80;;
34585;SDS011;20816;50.950;11.108;2022-07-29T03:40:13;2.00;;;0.80;;
34585;SDS011;20816;50.950;11.108;2022-07-29T03:42:46;2.37;;;0.90;;
34585;SDS011;20816;50.950;11.108;2022-07-29T03:45:15;4.43;;;0.60;;
34585;SDS011;20816;50.950;11.108;2022-07-29T03:47:48;2.40;;;0.60;;
34585;SDS011;20816;50.950;11.108;2022-07-29T03:50:25;1.87;;;0.50;;
34585;SDS011;20816;50.950;11.108;2022-07-29T03:52:52;1.30;;;0.60;;
34585;SDS011;20816;50.950;11.108;2022-07-29T03:55:18;0.73;;;0.73;;
34585;SDS011;20816;50.950;11.108;2022-07-29T03:57:45;2.43;;;0.63;;
34585;SDS011;20816;50.950;11.108;2022-07-29T04:00:14;4.03;;;0.80;;
34585;SDS011;20816;50.950;11.108;2022-07-29T04:02:43;2.97;;;1.37;;
34585;SDS011;20816;50.950;11.108;2022-07-29T04:05:15;1.60;;;0.67;;
34585;SDS011;20816;50.950;11.108;2022-07-29T04:07:43;1.70;;;1.00;;
34585;SDS011;20816;50.950;11.108;2022-07-29T04:10:11;1.87;;;0.83;;
34585;SDS011;20816;50.950;11.108;2022-07-29T04:12:38;1.90;;;1.00;;
34585;SDS011;20816;50.950;11.108;2022-07-29T04:15:05;2.70;;;0.50;;
34585;SDS011;20816;50.950;11.108;2022-07-29T04:17:32;2.07;;;0.63;;
34585;SDS011;20816;50.950;11.108;2022-07-29T04:19:58;1.53;;;0.50;;
34585;SDS011;20816;50.950;11.108;2022-07-29T04:22:25;1.57;;;0.50;;
34585;SDS011;20816;50.950;11.108;2022-07-29T04:24:52;3.80;;;0.80;;
34585;SDS011;20816;50.950;11.108;2022-07-29T04:27:19;3.50;;;0.93;;
34585;SDS011;20816;50.950;11.108;2022-07-29T04:29:46;3.03;;;0.70;;
34585;SDS011;20816;50.950;11.108;2022-07-29T04:32:22;1.93;;;0.63;;
34585;SDS011;20816;50.950;11.108;2022-07-29T04:34:48;2.47;;;1.00;;
34585;SDS011;20816;50.950;11.108;2022-07-29T04:37:15;2.57;;;0.60;;
34585;SDS011;20816;50.950;11.108;2022-07-29T04:39:42;2.90;;;0.83;;
34585;SDS011;20816;50.950;11.108;2022-07-29T04:42:08;0.67;;;0.60;;
34585;SDS011;20816;50.950;11.108;2022-07-29T04:44:35;4.43;;;0.60;;
34585;SDS011;20816;50.950;11.108;2022-07-29T04:47:07;3.87;;;0.93;;
34585;SDS011;20816;50.950;11.108;2022-07-29T04:49:34;2.60;;;0.83;;
34585;SDS011;20816;50.950;11.108;2022-07-29T04:52:00;1.23;;;0.63;;
34585;SDS011;20816;50.950;11.108;2022-07-29T04:54:27;2.93;;;0.93;;
34585;SDS011;20816;50.950;11.108;2022-07-29T04:56:53;1.10;;;0.83;;
34585;SDS011;20816;50.950;11.108;2022-07-29T04:59:20;1.83;;;0.80;;
34585;SDS011;20816;50.950;11.108;2022-07-29T05:01:46;1.87;;;0.70;;
34585;SDS011;20816;50.950;11.108;2022-07-29T05:04:13;1.17;;;0.83;;
34585;SDS011;20816;50.950;11.108;2022-07-29T05:06:40;2.73;;;0.53;;
34585;SDS011;20816;50.950;11.108;2022-07-29T05:09:07;2.03;;;0.70;;
34585;SDS011;20816;50.950;11.108;2022-07-29T05:11:33;0.90;;;0.70;;
34585;SDS011;20816;50.950;11.108;2022-07-29T05:14:00;1.27;;;0.57;;
34585;SDS011;20816;50.950;11.108;2022-07-29T05:16:26;2.57;;;0.87;;
34585;SDS011;20816;50.950;11.108;2022-07-29T05:18:53;2.00;;;0.70;;
34585;SDS011;20816;50.950;11.108;2022-07-29T05:21:20;0.80;;;0.80;;
34585;SDS011;20816;50.950;11.108;2022-07-29T05:23:47;4.70;;;0.83;;
34585;SDS011;20816;50.950;11.108;2022-07-29T05:26:13;3.33;;;0.90;;
34585;SDS011;20816;50.950;11.108;2022-07-29T05:28:40;0.60;;;0.40;;
34585;SDS011;20816;50.950;11.108;2022-07-29T05:31:07;2.13;;;0.40;;
34585;SDS011;20816;50.950;11.108;2022-07-29T05:33:33;1.20;;;0.70;;
34585;SDS011;20816;50.950;11.108;2022-07-29T05:36:03;8.37;;;1.17;;
34585;SDS011;20816;50.950;11.108;2022-07-29T05:38:33;5.30;;;1.10;;
34585;SDS011;20816;50.950;11.108;2022-07-29T05:41:02;1.43;;;0.60;;
34585;SDS011;20816;50.950;11.108;2022-07-29T05:43:29;1.77;;;0.67;;
34585;SDS011;20816;50.950;11.108;2022-07-29T05:45:56;0.97;;;0.90;;
34585;SDS011;20816;50.950;11.108;2022-07-29T05:48:24;1.73;;;0.70;;
34585;SDS011;20816;50.950;11.108;2022-07-29T05:50:51;1.80;;;1.00;;
34585;SDS011;20816;50.950;11.108;2022-07-29T05:53:17;4.78;;;1.67;;
34585;SDS011;20816;50.950;11.108;2022-07-29T05:55:46;0.55;;;0.50;;
34585;SDS011;20816;50.950;11.108;2022-07-29T05:58:14;3.33;;;0.80;;
34585;SDS011;20816;50.950;11.108;2022-07-29T06:00:40;1.88;;;0.88;;
34585;SDS011;20816;50.950;11.108;2022-07-29T06:03:07;2.08;;;0.70;;
34585;SDS011;20816;50.950;11.108;2022-07-29T06:05:34;4.03;;;0.60;;
34585;SDS011;20816;50.950;11.108;2022-07-29T06:08:00;1.80;;;0.85;;
34585;SDS011;20816;50.950;11.108;2022-07-29T06:10:27;4.03;;;0.88;;
34585;SDS011;20816;50.950;11.108;2022-07-29T06:12:54;0.85;;;0.70;;
34585;SDS011;20816;50.950;11.108;2022-07-29T06:15:20;2.15;;;0.80;;
34585;SDS011;20816;50.950;11.108;2022-07-29T06:17:47;1.35;;;0.70;;
34585;SDS011;20816;50.950;11.108;2022-07-29T06:20:26;1.42;;;0.80;;
34585;SDS011;20816;50.950;11.108;2022-07-29T06:22:56;2.60;;;0.50;;
34585;SDS011;20816;50.950;11.108;2022-07-29T06:25:23;3.42;;;0.90;;
34585;SDS011;20816;50.950;11.108;2022-07-29T06:27:49;1.00;;;0.60;;
34585;SDS011;20816;50.950;11.108;2022-07-29T06:30:16;3.75;;;0.73;;
34585;SDS011;20816;50.950;11.108;2022-07-29T06:32:43;2.00;;;1.02;;
34585;SDS011;20816;50.950;11.108;2022-07-29T06:35:10;2.90;;;0.70;;
34585;SDS011;20816;50.950;11.108;2022-07-29T06:37:56;1.90;;;0.60;;
34585;SDS011;20816;50.950;11.108;2022-07-29T06:40:25;2.90;;;1.05;;
34585;SDS011;20816;50.950;11.108;2022-07-29T06:43:10;3.78;;;0.90;;
34585;SDS011;20816;50.950;11.108;2022-07-29T06:45:37;2.08;;;0.88;;
34585;SDS011;20816;50.950;11.108;2022-07-29T06:48:08;4.18;;;1.17;;
34585;SDS011;20816;50.950;11.108;2022-07-29T06:50:35;2.70;;;0.88;;
34585;SDS011;20816;50.950;11.108;2022-07-29T06:53:01;3.55;;;0.70;;
34585;SDS011;20816;50.950;11.108;2022-07-29T06:55:28;0.75;;;0.55;;
34585;SDS011;20816;50.950;11.108;2022-07-29T06:57:55;0.70;;;0.50;;
34585;SDS011;20816;50.950;11.108;2022-07-29T07:00:21;2.28;;;0.50;;
34585;SDS011;20816;50.950;11.108;2022-07-29T07:02:48;4.25;;;1.05;;
34585;SDS011;20816;50.950;11.108;2022-07-29T07:05:15;3.45;;;1.30;;
34585;SDS011;20816;50.950;11.108;2022-07-29T07:07:41;4.35;;;1.58;;
34585;SDS011;20816;50.950;11.108;2022-07-29T07:10:08;3.40;;;0.68;;
34585;SDS011;20816;50.950;11.108;2022-07-29T07:12:35;1.27;;;0.68;;
34585;SDS011;20816;50.950;11.108;2022-07-29T07:15:01;2.95;;;0.95;;
34585;SDS011;20816;50.950;11.108;2022-07-29T07:17:29;1.00;;;0.68;;
34585;SDS011;20816;50.950;11.108;2022-07-29T07:19:55;1.00;;;0.68;;
34585;SDS011;20816;50.950;11.108;2022-07-29T07:22:22;1.80;;;0.88;;
34585;SDS011;20816;50.950;11.108;2022-07-29T07:24:48;1.13;;;0.60;;
34585;SDS011;20816;50.950;11.108;2022-07-29T07:27:15;1.50;;;0.70;;
34585;SDS011;20816;50.950;11.108;2022-07-29T07:29:42;3.22;;;1.00;;
34585;SDS011;20816;50.950;11.108;2022-07-29T07:32:09;2.97;;;1.23;;
34585;SDS011;20816;50.950;11.108;2022-07-29T07:34:36;3.97;;;0.77;;
34585;SDS011;20816;50.950;11.108;2022-07-29T07:37:04;2.75;;;0.80;;
34585;SDS011;20816;50.950;11.108;2022-07-29T07:39:31;1.52;;;0.70;;
34585;SDS011;20816;50.950;11.108;2022-07-29T07:41:58;3.13;;;1.40;;
34585;SDS011;20816;50.950;11.108;2022-07-29T07:44:25;2.53;;;1.15;;
34585;SDS011;20816;50.950;11.108;2022-07-29T07:46:51;1.88;;;0.70;;
34585;SDS011;20816;50.950;11.108;2022-07-29T07:49:19;3.20;;;1.00;;
34585;SDS011;20816;50.950;11.108;2022-07-29T07:51:46;3.03;;;0.68;;
34585;SDS011;20816;50.950;11.108;2022-07-29T07:54:16;2.10;;;0.85;;
34585;SDS011;20816;50.950;11.108;2022-07-29T07:56:46;1.77;;;0.88;;
34585;SDS011;20816;50.950;11.108;2022-07-29T07:59:18;1.38;;;0.90;;
34585;SDS011;20816;50.950;11.108;2022-07-29T08:01:45;2.97;;;1.02;;
34585;SDS011;20816;50.950;11.108;2022-07-29T08:04:20;2.47;;;0.77;;
34585;SDS011;20816;50.950;11.108;2022-07-29T08:06:53;1.23;;;0.82;;
34585;SDS011;20816;50.950;11.108;2022-07-29T08:09:23;3.67;;;0.57;;
34585;SDS011;20816;50.950;11.108;2022-07-29T08:11:55;3.00;;;0.75;;
34585;SDS011;20816;50.950;11.108;2022-07-29T08:14:23;1.35;;;0.80;;
34585;SDS011;20816;50.950;11.108;2022-07-29T08:16:50;3.63;;;1.13;;
34585;SDS011;20816;50.950;11.108;2022-07-29T08:19:17;1.70;;;0.95;;
34585;SDS011;20816;50.950;11.108;2022-07-29T08:21:44;1.33;;;0.85;;
34585;SDS011;20816;50.950;11.108;2022-07-29T08:24:11;1.13;;;1.02;;
34585;SDS011;20816;50.950;11.108;2022-07-29T08:26:56;1.50;;;0.80;;
34585;SDS011;20816;50.950;11.108;2022-07-29T08:29:23;4.18;;;1.10;;
34585;SDS011;20816;50.950;11.108;2022-07-29T08:31:49;2.72;;;1.23;;
34585;SDS011;20816;50.950;11.108;2022-07-29T08:34:16;4.00;;;1.55;;
34585;SDS011;20816;50.950;11.108;2022-07-29T08:36:43;3.47;;;1.05;;
34585;SDS011;20816;50.950;11.108;2022-07-29T08:39:15;3.78;;;1.63;;
34585;SDS011;20816;50.950;11.108;2022-07-29T08:41:41;1.77;;;1.45;;
34585;SDS011;20816;50.950;11.108;2022-07-29T08:44:22;2.08;;;1.30;;
34585;SDS011;20816;50.950;11.108;2022-07-29T08:46:56;3.45;;;1.40;;
34585;SDS011;20816;50.950;11.108;2022-07-29T08:49:23;2.03;;;1.10;;
34585;SDS011;20816;50.950;11.108;2022-07-29T08:51:50;4.60;;;1.48;;
34585;SDS011;20816;50.950;11.108;2022-07-29T08:54:17;4.45;;;1.40;;
34585;SDS011;20816;50.950;11.108;2022-07-29T08:56:45;1.95;;;1.48;;
34585;SDS011;20816;50.950;11.108;2022-07-29T08:59:16;3.22;;;1.25;;
34585;SDS011;20816;50.950;11.108;2022-07-29T09:01:48;1.67;;;1.10;;
34585;SDS011;20816;50.950;11.108;2022-07-29T09:04:19;7.25;;;1.83;;
34585;SDS011;20816;50.950;11.108;2022-07-29T09:06:48;1.38;;;1.27;;
34585;SDS011;20816;50.950;11.108;2022-07-29T09:09:17;3.97;;;1.02;;
34585;SDS011;20816;50.950;11.108;2022-07-29T09:11:44;9.05;;;1.65;;
34585;SDS011;20816;50.950;11.108;2022-07-29T09:14:11;2.92;;;1.42;;
34585;SDS011;20816;50.950;11.108;2022-07-29T09:19:19;3.25;;;1.40;;
34585;SDS011;20816;50.950;11.108;2022-07-29T09:21:47;2.70;;;1.30;;
34585;SDS011;20816;50.950;11.108;2022-07-29T09:27:01;5.88;;;1.52;;
34585;SDS011;20816;50.950;11.108;2022-07-29T09:29:28;4.78;;;1.20;;
34585;SDS011;20816;50.950;11.108;2022-07-29T09:32:01;5.53;;;1.40;;
34585;SDS011;20816;50.950;11.108;2022-07-29T09:34:34;3.22;;;1.00;;
34585;SDS011;20816;50.950;11.108;2022-07-29T09:37:00;2.72;;;0.90;;
34585;SDS011;20816;50.950;11.108;2022-07-29T09:42:11;6.72;;;2.88;;
34585;SDS011;20816;50.950;11.108;2022-07-29T09:44:45;4.75;;;1.33;;
34585;SDS011;20816;50.950;11.108;2022-07-29T09:47:11;7.32;;;2.17;;
34585;SDS011;20816;50.950;11.108;2022-07-29T09:49:52;3.03;;;0.93;;
34585;SDS011;20816;50.950;11.108;2022-07-29T09:52:20;22.88;;;3.10;;
34585;SDS011;20816;50.950;11.108;2022-07-29T09:54:47;2.97;;;1.40;;
34585;SDS011;20816;50.950;11.108;2022-07-29T09:57:24;5.15;;;1.30;;
34585;SDS011;20816;50.950;11.108;2022-07-29T10:00:12;6.65;;;1.92;;
34585;SDS011;20816;50.950;11.108;2022-07-29T10:02:42;1.85;;;1.17;;
34585;SDS011;20816;50.950;11.108;2022-07-29T10:05:22;4.28;;;1.42;;
34585;SDS011;20816;50.950;11.108;2022-07-29T10:07:55;2.72;;;1.02;;
34585;SDS011;20816;50.950;11.108;2022-07-29T10:10:26;3.25;;;1.67;;
34585;SDS011;20816;50.950;11.108;2022-07-29T10:12:55;1.13;;;0.90;;
34585;SDS011;20816;50.950;11.108;2022-07-29T10:15:32;3.45;;;1.02;;
34585;SDS011;20816;50.950;11.108;2022-07-29T10:18:03;2.40;;;1.10;;
34585;SDS011;20816;50.950;11.108;2022-07-29T10:20:30;2.47;;;1.15;;
34585;SDS011;20816;50.950;11.108;2022-07-29T10:22:57;1.10;;;0.90;;
34585;SDS011;20816;50.950;11.108;2022-07-29T10:25:24;3.90;;;1.10;;
34585;SDS011;20816;50.950;11.108;2022-07-29T10:27:51;1.50;;;1.02;;
34585;SDS011;20816;50.950;11.108;2022-07-29T10:30:19;3.22;;;1.33;;
34585;SDS011;20816;50.950;11.108;2022-07-29T10:35:51;7.32;;;1.10;;
34585;SDS011;20816;50.950;11.108;2022-07-29T10:44:22;7.65;;;1.25;;
34585;SDS011;20816;50.950;11.108;2022-07-29T10:46:51;1.08;;;0.80;;
34585;SDS011;20816;50.950;11.108;2022-07-29T10:49:20;1.65;;;1.48;;
34585;SDS011;20816;50.950;11.108;2022-07-29T11:02:42;1.38;;;1.10;;
34585;SDS011;20816;50.950;11.108;2022-07-29T11:05:12;3.75;;;1.23;;
34585;SDS011;20816;50.950;11.108;2022-07-29T11:10:46;1.38;;;1.00;;
34585;SDS011;20816;50.950;11.108;2022-07-29T11:16:14;7.25;;;1.08;;
34585;SDS011;20816;50.950;11.108;2022-07-29T11:21:44;5.97;;;1.15;;
34585;SDS011;20816;50.950;11.108;2022-07-29T11:24:30;4.35;;;2.20;;
34585;SDS011;20816;50.950;11.108;2022-07-29T11:27:10;5.00;;;1.30;;
34585;SDS011;20816;50.950;11.108;2022-07-29T11:29:55;3.08;;;0.98;;
34585;SDS011;20816;50.950;11.108;2022-07-29T11:32:28;12.15;;;2.05;;
34585;SDS011;20816;50.950;11.108;2022-07-29T11:35:18;3.00;;;1.40;;
34585;SDS011;20816;50.950;11.108;2022-07-29T11:43:52;3.10;;;1.45;;
34585;SDS011;20816;50.950;11.108;2022-07-29T11:49:09;4.30;;;1.25;;
34585;SDS011;20816;50.950;11.108;2022-07-29T11:51:40;4.45;;;1.85;;
34585;SDS011;20816;50.950;11.108;2022-07-29T11:54:23;3.63;;;1.30;;
34585;SDS011;20816;50.950;11.108;2022-07-29T11:56:55;5.13;;;1.55;;
34585;SDS011;20816;50.950;11.108;2022-07-29T11:59:24;2.65;;;1.48;;
34585;SDS011;20816;50.950;11.108;2022-07-29T12:01:59;3.35;;;2.13;;
34585;SDS011;20816;50.950;11.108;2022-07-29T12:04:53;7.18;;;1.58;;
34585;SDS011;20816;50.950;11.108;2022-07-29T12:07:30;2.00;;;1.02;;
34585;SDS011;20816;50.950;11.108;2022-07-29T12:10:00;18.50;;;1.67;;
34585;SDS011;20816;50.950;11.108;2022-07-29T12:12:28;8.57;;;1.88;;
34585;SDS011;20816;50.950;11.108;2022-07-29T12:14:55;2.50;;;1.58;;
34585;SDS011;20816;50.950;11.108;2022-07-29T12:19:56;2.38;;;1.20;;
34585;SDS011;20816;50.950;11.108;2022-07-29T12:22:37;5.03;;;1.23;;
34585;SDS011;20816;50.950;11.108;2022-07-29T12:25:09;6.22;;;2.13;;
34585;SDS011;20816;50.950;11.108;2022-07-29T12:28:01;4.43;;;1.27;;
34585;SDS011;20816;50.950;11.108;2022-07-29T12:30:34;1.42;;;1.33;;
34585;SDS011;20816;50.950;11.108;2022-07-29T12:33:10;3.63;;;1.50;;
34585;SDS011;20816;50.950;11.108;2022-07-29T12:35:41;9.85;;;2.17;;
34585;SDS011;20816;50.950;11.108;2022-07-29T12:38:19;8.95;;;2.13;;
34585;SDS011;20816;50.950;11.108;2022-07-29T12:40:47;2.20;;;1.15;;
34585;SDS011;20816;50.950;11.108;2022-07-29T12:43:16;4.93;;;1.85;;
34585;SDS011;20816;50.950;11.108;2022-07-29T12:45:46;2.25;;;1.52;;
34585;SDS011;20816;50.950;11.108;2022-07-29T12:48:15;7.82;;;1.77;;
34585;SDS011;20816;50.950;11.108;2022-07-29T12:50:59;6.68;;;1.60;;
34585;SDS011;20816;50.950;11.108;2022-07-29T12:53:27;2.75;;;1.45;;
34585;SDS011;20816;50.950;11.108;2022-07-29T12:55:55;5.18;;;1.65;;
34585;SDS011;20816;50.950;11.108;2022-07-29T12:58:26;13.68;;;2.97;;
34585;SDS011;20816;50.950;11.108;2022-07-29T13:11:49;6.40;;;1.70;;
34585;SDS011;20816;50.950;11.108;2022-07-29T13:19:50;1.67;;;1.27;;
34585;SDS011;20816;50.950;11.108;2022-07-29T13:22:34;2.28;;;1.35;;
34585;SDS011;20816;50.950;11.108;2022-07-29T13:25:01;3.28;;;1.33;;
34585;SDS011;20816;50.950;11.108;2022-07-29T13:27:29;5.18;;;1.52;;
34585;SDS011;20816;50.950;11.108;2022-07-29T13:30:03;6.38;;;1.58;;
34585;SDS011;20816;50.950;11.108;2022-07-29T13:32:32;1.38;;;1.20;;
34585;SDS011;20816;50.950;11.108;2022-07-29T13:35:06;2.88;;;1.38;;
34585;SDS011;20816;50.950;11.108;2022-07-29T13:37:35;5.07;;;1.50;;
34585;SDS011;20816;50.950;11.108;2022-07-29T13:40:05;9.40;;;2.55;;
34585;SDS011;20816;50.950;11.108;2022-07-29T13:42:35;1.63;;;1.38;;
34585;SDS011;20816;50.950;11.108;2022-07-29T13:45:02;15.57;;;1.65;;
34585;SDS011;20816;50.950;11.108;2022-07-29T13:47:30;7.68;;;1.83;;
34585;SDS011;20816;50.950;11.108;2022-07-29T13:50:01;18.83;;;3.10;;
34585;SDS011;20816;50.950;11.108;2022-07-29T13:52:31;13.23;;;1.88;;
34585;SDS011;20816;50.950;11.108;2022-07-29T13:54:58;7.00;;;1.65;;
34585;SDS011;20816;50.950;11.108;2022-07-29T13:57:25;2.72;;;1.63;;
34585;SDS011;20816;50.950;11.108;2022-07-29T13:59:51;3.80;;;1.50;;
34585;SDS011;20816;50.950;11.108;2022-07-29T14:02:20;6.07;;;1.73;;
34585;SDS011;20816;50.950;11.108;2022-07-29T14:04:51;5.10;;;1.58;;
34585;SDS011;20816;50.950;11.108;2022-07-29T14:07:19;2.97;;;1.10;;
34585;SDS011;20816;50.950;11.108;2022-07-29T14:09:46;3.38;;;2.08;;
34585;SDS011;20816;50.950;11.108;2022-07-29T14:12:13;5.32;;;1.48;;
34585;SDS011;20816;50.950;11.108;2022-07-29T14:14:40;2.50;;;1.60;;
34585;SDS011;20816;50.950;11.108;2022-07-29T14:17:08;7.40;;;2.20;;
34585;SDS011;20816;50.950;11.108;2022-07-29T14:19:35;3.88;;;1.70;;
34585;SDS011;20816;50.950;11.108;2022-07-29T14:22:03;4.00;;;1.30;;
34585;SDS011;20816;50.950;11.108;2022-07-29T14:24:32;4.18;;;1.50;;
34585;SDS011;20816;50.950;11.108;2022-07-29T14:27:02;2.17;;;1.48;;
34585;SDS011;20816;50.950;11.108;2022-07-29T14:29:29;1.42;;;1.33;;
34585;SDS011;20816;50.950;11.108;2022-07-29T14:32:04;5.13;;;1.90;;
34585;SDS011;20816;50.950;11.108;2022-07-29T14:34:32;3.10;;;1.60;;
34585;SDS011;20816;50.950;11.108;2022-07-29T14:36:58;5.88;;;2.00;;
34585;SDS011;20816;50.950;11.108;2022-07-29T14:39:25;1.88;;;1.27;;
34585;SDS011;20816;50.950;11.108;2022-07-29T14:41:57;4.05;;;1.60;;
34585;SDS011;20816;50.950;11.108;2022-07-29T14:44:25;2.58;;;1.33;;
34585;SDS011;20816;50.950;11.108;2022-07-29T14:47:00;2.35;;;1.40;;
34585;SDS011;20816;50.950;11.108;2022-07-29T14:49:33;3.33;;;1.60;;
34585;SDS011;20816;50.950;11.108;2022-07-29T14:52:00;2.35;;;1.50;;
34585;SDS011;20816;50.950;11.108;2022-07-29T14:54:27;4.78;;;2.20;;
34585;SDS011;20816;50.950;11.108;2022-07-29T14:56:53;2.55;;;1.73;;
34585;SDS011;20816;50.950;11.108;2022-07-29T14:59:23;1.70;;;1.60;;
34585;SDS011;20816;50.950;11.108;2022-07-29T15:01:50;6.13;;;1.80;;
34585;SDS011;20816;50.950;11.108;2022-07-29T15:04:17;2.53;;;1.58;;
34585;SDS011;20816;50.950;11.108;2022-07-29T15:06:43;2.38;;;1.63;;
34585;SDS011;20816;50.950;11.108;2022-07-29T15:09:10;4.10;;;1.65;;
34585;SDS011;20816;50.950;11.108;2022-07-29T15:11:36;5.03;;;1.48;;
34585;SDS011;20816;50.950;11.108;2022-07-29T15:14:04;6.13;;;2.90;;
34585;SDS011;20816;50.950;11.108;2022-07-29T15:16:32;1.98;;;1.52;;
34585;SDS011;20816;50.950;11.108;2022-07-29T15:19:02;3.00;;;1.80;;
34585;SDS011;20816;50.950;11.108;2022-07-29T15:21:29;6.43;;;1.80;;
34585;SDS011;20816;50.950;11.108;2022-07-29T15:23:56;2.20;;;1.40;;
34585;SDS011;20816;50.950;11.108;2022-07-29T15:26:22;9.00;;;1.60;;
34585;SDS011;20816;50.950;11.108;2022-07-29T15:28:49;4.18;;;1.45;;
34585;SDS011;20816;50.950;11.108;2022-07-29T15:31:16;2.75;;;1.63;;
34585;SDS011;20816;50.950;11.108;2022-07-29T15:33:43;2.45;;;1.85;;
34585;SDS011;20816;50.950;11.108;2022-07-29T15:36:09;1.80;;;1.55;;
34585;SDS011;20816;50.950;11.108;2022-07-29T15:38:58;3.70;;;1.60;;
34585;SDS011;20816;50.950;11.108;2022-07-29T15:41:24;3.50;;;1.90;;
34585;SDS011;20816;50.950;11.108;2022-07-29T15:43:51;1.52;;;1.35;;
34585;SDS011;20816;50.950;11.108;2022-07-29T15:46:18;5.95;;;2.25;;
34585;SDS011;20816;50.950;11.108;2022-07-29T15:49:04;2.35;;;1.80;;
34585;SDS011;20816;50.950;11.108;2022-07-29T15:51:32;5.15;;;2.28;;
34585;SDS011;20816;50.950;11.108;2022-07-29T15:54:00;5.38;;;2.28;;
34585;SDS011;20816;50.950;11.108;2022-07-29T15:56:28;2.15;;;1.70;;
34585;SDS011;20816;50.950;11.108;2022-07-29T15:58:56;3.55;;;2.50;;
34585;SDS011;20816;50.950;11.108;2022-07-29T16:01:23;3.00;;;1.70;;
34585;SDS011;20816;50.950;11.108;2022-07-29T16:03:50;2.20;;;1.85;;
34585;SDS011;20816;50.950;11.108;2022-07-29T16:06:17;4.18;;;2.33;;
34585;SDS011;20816;50.950;11.108;2022-07-29T16:08:43;4.40;;;3.05;;
34585;SDS011;20816;50.950;11.108;2022-07-29T16:11:10;2.55;;;1.65;;
34585;SDS011;20816;50.950;11.108;2022-07-29T16:13:36;2.17;;;1.50;;
34585;SDS011;20816;50.950;11.108;2022-07-29T16:16:03;8.55;;;2.00;;